Flight Briefing for CPX402

Departure Arrival
Los Angeles International Airport (KLAX)
Click to view FAA NOTAMS
Seattle-Tacoma International Airport (KSEA)
Click to view FAA NOTAMS
Departure Time Arrival Time
N/A N/A
Aircraft Distance
B757-200SF 831nm
Departure METAR Arrival METAR
KLAX 200853Z 12010KT 10SM FEW018 BKN070 BKN150 15/11 A3000 RMK AO2 SLP158 T01500111 53002 $ KSEA 200853Z 09011KT 10SM CLR 19/M06 A2994 RMK AO2 SLP141 T01941056 58006
Suggested Route
TRTON2 SCTRR SNS RBL BTG HAWKZ7


View recent IFR Routes data
Notes



Charts and Procedures

Charts for KLAX
No chart available
Charts for KSEA
No chart available

Windy.com Weather Map